Detalii statie AGRICHIM STEFAN CEL MARE [0000198F]

Toti senzorii

Date Temperatura solului [C]Precipitatii [mm]Voltaj baterie [mV]HC Air temperature [C]HC Relative humidity [%]Punctul de roua [C]
medieminmaxsumaultimamedieminmaxmediemediemin
2017-10-20 09:00:00 12.9 12.7 13.2 0 6914 12.12 10.9 13.27 100 12 10.9
2017-10-20 10:00:00 12.9 12.8 13 0 7088 14.81 13.52 16.34 100 14.7 13.5
2017-10-20 11:00:00 12.9 12.8 13.2 0 7254 18.44 16.63 20.51 100 18.4 16.6
2017-10-20 12:00:00 13.1 13 13.2 0 7216 21.04 20.73 21.43 100 21 20.7
2017-10-20 13:00:00 13.3 13.2 13.5 0 7246 22.97 21.03 24.54 100 22.9 21
2017-10-20 14:00:00 13.5 13.4 13.8 0 7246 24.7 23.28 25.44 100 24.6 23.2
2017-10-20 15:00:00 14 13.8 14.2 0 7176 23.83 23.15 25.14 100 23.7 23.1
2017-10-20 16:00:00 14.3 14.2 14.5 0 7226 22.68 21.9 23.14 100 22.6 21.9
2017-10-20 17:00:00 14.4 14.4 14.6 0 7070 20.01 18.41 21.56 100 19.9 18.4
2017-10-20 18:00:00 14.4 14.4 14.6 0 7020 16.87 15.68 18.03 100 16.8 15.6
2017-10-20 19:00:00 14.4 14.4 14.6 0 6904 14.68 14.15 15.56 100 14.6 14.1
2017-10-20 20:00:00 14.3 14.2 14.5 0 6864 13.78 13.59 14.03 100 13.7 13.5
2017-10-20 21:00:00 14.2 14.1 14.4 0 6874 13.55 13.11 14.03 100 13.5 13.1
2017-10-20 22:00:00 14.1 13.9 14.2 0 6854 12.63 12.09 13.58 100 12.5 12
2017-10-20 23:00:00 13.9 13.8 14.1 0 6854 12.09 11.27 12.8 100 12 11.2
2017-10-21 00:00:00 13.8 13.8 14 0 6834 12.62 11.4 13.05 100 12.5 11.4
2017-10-21 01:00:00 13.7 13.7 13.9 0 6816 10.4 10.07 11.15 100 10.3 10
2017-10-21 02:00:00 13.6 13.5 13.8 0 6826 10.25 10 10.51 100 10.2 10
2017-10-21 03:00:00 13.5 13.4 13.7 0 6816 9.93 9.82 10.06 100 9.9 9.8
2017-10-21 04:00:00 13.4 13.3 13.5 0 6816 9.49 8.94 10.74 100 9.4 8.9
2017-10-21 05:00:00 13.3 13.1 13.4 0 6806 8.1 7.67 9.41 100 8 7.6
2017-10-21 06:00:00 13.2 13.1 13.5 0 6806 7.86 7.67 8.13 100 7.8 7.6
2017-10-21 07:00:00 13.1 13.1 13.3 0 6796 8.46 7.63 8.96 100 8.4 7.6
2017-10-21 08:00:00 13.1 12.8 13.3 0 6816 9.41 8.63 10.6 100 9.3 8.6
2017-10-21 09:00:00 13 12.9 13.1 0 6932 11.82 10.77 13.09 100 11.7 10.7
2017-10-21 10:00:00 13 12.9 13.2 0 7246 14.02 13.2 14.42 100 14 13.2
2017-10-21 11:00:00 13.1 13 13.4 0 7254 15.27 14.36 17.02 100 15.2 14.3
2017-10-21 12:00:00 13.3 13.3 13.5 0 7246 18.03 17.24 18.64 100 17.9 17.2
2017-10-21 13:00:00 13.6 13.5 13.8 0 7254 19.72 18.1 20.76 100 19.6 18.1
2017-10-21 14:00:00 13.9 13.7 14 0 7246 21.15 19.62 21.82 100 21.1 19.6
2017-10-21 15:00:00 14.2 14.1 14.4 0 7206 20.76 20.18 21.57 100 20.7 20.1
2017-10-21 16:00:00 14.4 14.3 14.6 0 7166 19.71 18.97 20.17 100 19.6 18.9
2017-10-21 17:00:00 14.6 14.5 14.9 0 7050 17.43 16.2 18.98 100 17.3 16.2
2017-10-21 18:00:00 14.5 14.5 14.7 0 6992 14.91 14.32 15.91 100 14.8 14.3
2017-10-21 19:00:00 14.5 14.4 14.6 0 6972 14.11 13.74 14.43 100 14 13.7
2017-10-21 20:00:00 14.4 14.3 14.5 0 6904 13.75 13.4 14.11 100 13.7 13.4
2017-10-21 21:00:00 14.2 14.2 14.5 0 6884 12.87 12.61 13.27 100 12.8 12.6
2017-10-21 22:00:00 14.2 14.2 14.4 0 6874 12.2 11.93 12.44 100 12.1 11.9
2017-10-21 23:00:00 14.1 14 14.4 0 6874 11.99 11.85 12.19 100 11.9 11.8
2017-10-22 00:00:00 14 13.8 14.2 0 6864 12.17 12.04 12.28 100 12.1 12
2017-10-22 01:00:00 13.9 13.9 14.1 0 6834 12.15 11.95 12.29 100 12.1 11.9
2017-10-22 02:00:00 13.9 13.8 14 0 6834 11.95 11.59 12.19 100 11.9 11.5
2017-10-22 03:00:00 13.8 13.8 14 0 6834 11.45 11.28 11.61 100 11.4 11.2
2017-10-22 04:00:00 13.8 13.8 13.9 0 6826 11.57 11.27 11.91 100 11.5 11.2
2017-10-22 05:00:00 13.7 13.5 13.9 0 6834 12.6 12.08 12.86 100 12.5 12
2017-10-22 06:00:00 13.6 13.5 13.8 0 6834 12.71 12.51 12.89 100 12.6 12.5
2017-10-22 07:00:00 13.6 13.5 13.8 0 6826 12.14 11.83 12.45 100 12.1 11.8